Time;durP1;ratioP1;P1;durP2;ratioP2;P2;SDS_P1;SDS_P2;PMS_P1;PMS_P2;Temp;Humidity;BMP_temperature;BMP_pressure;BME280_temperature;BME280_humidity;BME280_pressure;Samples;Min_cycle;Max_cycle;Signal;HPM_P1;HPM_P2
2021/04/13 00:01:11;;;;;;;1.77;0.98;;;5.70;70.20;;;;;;5014330;28;20022;-72
2021/04/13 00:03:51;;;;;;;2.05;0.95;;;5.80;70.20;;;;;;5014804;28;20054;-72
2021/04/13 00:06:23;;;;;;;0.80;0.80;;;5.80;70.10;;;;;;5014952;28;20022;-72
2021/04/13 00:08:51;;;;;;;2.78;0.90;;;5.80;70.20;;;;;;5014286;28;20060;-72
2021/04/13 00:11:18;;;;;;;1.40;1.13;;;5.70;70.20;;;;;;5014450;28;20097;-72
2021/04/13 00:13:44;;;;;;;1.17;0.90;;;5.70;70.40;;;;;;5014006;28;20071;-73
2021/04/13 00:16:24;;;;;;;1.50;1.40;;;5.70;70.60;;;;;;5014234;28;20049;-73
2021/04/13 00:18:51;;;;;;;4.65;1.48;;;5.70;70.80;;;;;;5013870;28;20030;-73
2021/04/13 00:21:30;;;;;;;1.58;0.90;;;5.70;70.80;;;;;;5013103;28;20034;-73
2021/04/13 00:23:59;;;;;;;4.25;1.20;;;5.70;70.80;;;;;;5013926;28;20026;-72
2021/04/13 00:26:27;;;;;;;0.90;0.73;;;5.70;70.70;;;;;;5013756;28;20075;-73
2021/04/13 00:28:55;;;;;;;2.45;1.23;;;5.80;70.70;;;;;;5013847;28;20148;-73
2021/04/13 00:31:45;;;;;;;3.63;1.23;;;5.80;70.70;;;;;;5014216;28;20365;-72
2021/04/13 00:34:52;;;;;;;1.02;0.80;;;5.80;70.80;;;;;;5014540;28;20026;-73
2021/04/13 00:37:27;;;;;;;2.55;0.98;;;5.90;70.80;;;;;;5014223;28;20082;-72
2021/04/13 00:40:14;;;;;;;1.75;0.80;;;5.90;71.00;;;;;;5013453;28;20034;-73
2021/04/13 00:42:41;;;;;;;1.23;0.98;;;5.80;71.00;;;;;;5011847;28;20053;-72
2021/04/13 00:45:26;;;;;;;3.85;1.17;;;5.70;71.10;;;;;;5012669;28;20029;-73
2021/04/13 00:47:53;;;;;;;0.98;0.90;;;5.80;71.30;;;;;;5013417;28;20029;-73
2021/04/13 00:50:50;;;;;;;2.03;0.90;;;5.70;71.40;;;;;;5013921;28;20097;-73
2021/04/13 00:53:24;;;;;;;3.47;1.67;;;5.70;71.70;;;;;;5012668;28;20037;-72
2021/04/13 00:56:00;;;;;;;6.38;1.20;;;5.60;71.90;;;;;;5013282;28;20025;-73
2021/04/13 00:58:46;;;;;;;1.20;0.90;;;5.50;72.00;;;;;;5013748;28;20038;-72
2021/04/13 01:01:28;;;;;;;3.53;1.30;;;5.50;72.00;;;;;;5013805;28;20394;-72
2021/04/13 01:04:15;;;;;;;5.45;1.60;;;5.50;72.10;;;;;;5012797;28;20030;-72
2021/04/13 01:06:44;;;;;;;2.42;1.27;;;5.60;72.20;;;;;;5013662;28;20458;-73
2021/04/13 01:09:21;;;;;;;3.70;1.20;;;5.50;72.10;;;;;;5013616;28;20048;-72
2021/04/13 01:15:11;;;;;;;;;;;5.60;72.40;;;;;;5013983;28;20017;-73
2021/04/13 01:17:39;;;;;;;1.70;1.00;;;5.40;72.30;;;;;;5013051;28;20309;-72
2021/04/13 01:20:36;;;;;;;2.95;2.30;;;5.40;72.30;;;;;;5011365;28;20115;-72
2021/04/13 01:23:22;;;;;;;3.97;1.48;;;5.50;72.60;;;;;;5012754;28;20022;-72
2021/04/13 01:25:57;;;;;;;5.03;1.13;;;5.50;72.60;;;;;;5011445;28;20427;-72
2021/04/13 01:28:27;;;;;;;3.20;1.58;;;5.50;72.70;;;;;;5011963;28;20436;-72
2021/04/13 01:31:06;;;;;;;2.47;1.45;;;5.50;72.70;;;;;;5011299;28;20386;-73
2021/04/13 01:33:46;;;;;;;1.73;1.00;;;5.40;72.70;;;;;;5012807;28;20355;-73
2021/04/13 01:36:29;;;;;;;1.23;1.13;;;5.50;72.90;;;;;;5013382;28;20018;-73
2021/04/13 01:39:08;;;;;;;1.40;0.90;;;5.50;72.90;;;;;;5011458;28;20478;-73
2021/04/13 01:44:21;;;;;;;1.20;1.00;;;5.50;72.90;;;;;;5012917;28;20060;-73
2021/04/13 01:46:47;;;;;;;1.70;0.90;;;5.50;72.80;;;;;;5012242;28;20022;-73
2021/04/13 01:49:13;;;;;;;0.80;0.80;;;5.50;72.80;;;;;;5012812;28;20061;-73
2021/04/13 01:51:39;;;;;;;1.77;1.15;;;5.50;72.90;;;;;;5012862;28;20415;-73
2021/04/13 01:54:11;;;;;;;3.85;1.33;;;5.50;73.10;;;;;;5010785;28;20105;-73
2021/04/13 01:56:53;;;;;;;14.48;1.80;;;5.40;73.30;;;;;;5012785;28;20462;-73
2021/04/13 01:59:24;;;;;;;3.05;1.00;;;5.40;73.40;;;;;;5011452;28;20121;-73
2021/04/13 02:01:57;;;;;;;1.48;1.00;;;5.40;73.50;;;;;;5012068;28;20378;-72
2021/04/13 02:04:34;;;;;;;1.27;1.02;;;5.40;73.50;;;;;;5012670;28;20143;-73
2021/04/13 02:09:55;;;;;;;1.90;1.20;;;5.30;73.70;;;;;;5011912;28;20065;-73
2021/04/13 02:12:27;;;;;;;1.83;1.08;;;5.30;73.70;;;;;;5011162;28;20378;-72
2021/04/13 02:15:01;;;;;;;1.42;1.10;;;5.30;73.70;;;;;;5011869;28;20026;-73
2021/04/13 02:17:35;;;;;;;2.17;1.00;;;5.30;73.80;;;;;;5012496;28;20021;-72
2021/04/13 02:20:02;;;;;;;1.17;1.08;;;5.30;73.90;;;;;;5011450;28;20037;-70
2021/04/13 02:22:28;;;;;;;1.65;0.95;;;5.30;74.00;;;;;;5012276;28;20517;-72
2021/04/13 02:25:01;;;;;;;1.55;0.85;;;5.20;74.10;;;;;;5011294;28;20061;-72
2021/04/13 02:27:30;;;;;;;2.05;1.20;;;5.20;74.20;;;;;;5012224;28;20041;-72
2021/04/13 02:30:08;;;;;;;2.67;1.20;;;5.20;74.30;;;;;;5011575;28;20022;-73
2021/04/13 02:32:34;;;;;;;1.27;0.90;;;5.10;74.60;;;;;;5012155;28;20026;-72
2021/04/13 02:35:16;;;;;;;1.13;0.90;;;5.00;74.80;;;;;;5011555;28;20221;-72
2021/04/13 02:37:47;;;;;;;1.58;1.13;;;5.00;75.00;;;;;;5011914;28;20033;-72
2021/04/13 02:40:23;;;;;;;5.07;1.33;;;5.00;74.90;;;;;;5011546;28;20022;-73
2021/04/13 02:42:56;;;;;;;1.70;1.30;;;5.00;74.90;;;;;;5012224;28;20046;-72
2021/04/13 02:45:27;;;;;;;1.17;0.82;;;5.00;74.90;;;;;;5012181;28;20073;-73
2021/04/13 02:48:00;;;;;;;1.73;1.00;;;5.00;75.00;;;;;;5011483;28;20029;-72
2021/04/13 02:50:26;;;;;;;2.20;1.20;;;4.90;75.00;;;;;;5011736;28;20024;-72
2021/04/13 02:52:53;;;;;;;3.30;1.58;;;4.90;75.00;;;;;;5011062;28;20026;-73
2021/04/13 02:55:29;;;;;;;1.77;1.20;;;4.90;75.00;;;;;;5011987;28;20062;-73
2021/04/13 02:57:58;;;;;;;1.65;1.13;;;4.90;75.10;;;;;;5011009;28;20029;-72
2021/04/13 03:00:31;;;;;;;4.40;1.20;;;4.90;75.00;;;;;;5011543;28;20470;-72
2021/04/13 03:03:05;;;;;;;2.42;1.20;;;4.90;75.10;;;;;;5010192;28;20030;-72
2021/04/13 03:05:32;;;;;;;1.23;1.13;;;4.90;75.20;;;;;;5012018;28;20022;-72
2021/04/13 03:08:02;;;;;;;1.52;0.98;;;4.90;75.20;;;;;;5011197;28;20470;-72
2021/04/13 03:10:32;;;;;;;1.35;1.10;;;4.90;75.70;;;;;;5011858;28;20026;-72
2021/04/13 03:13:02;;;;;;;2.35;1.40;;;4.80;76.10;;;;;;5011100;28;20033;-72
2021/04/13 03:15:30;;;;;;;2.15;1.20;;;4.80;76.20;;;;;;5011831;28;20463;-72
2021/04/13 03:17:59;;;;;;;3.03;1.27;;;4.70;76.10;;;;;;5010991;28;20037;-72
2021/04/13 03:20:29;;;;;;;0.80;0.80;;;4.80;76.00;;;;;;5010398;28;20068;-72
2021/04/13 03:22:58;;;;;;;1.52;0.90;;;4.80;75.80;;;;;;5011128;28;20017;-72
2021/04/13 03:25:28;;;;;;;2.42;1.88;;;4.80;75.80;;;;;;5011318;28;20363;-72
2021/04/13 03:27:55;;;;;;;2.90;1.33;;;4.80;75.90;;;;;;5011112;28;20023;-73
2021/04/13 03:30:23;;;;;;;1.67;1.08;;;4.80;76.00;;;;;;5011596;28;20026;-72
2021/04/13 03:32:53;;;;;;;1.55;1.15;;;4.80;76.40;;;;;;5010944;28;20034;-72
2021/04/13 03:35:22;;;;;;;2.58;1.20;;;4.80;76.30;;;;;;5010621;28;20026;-73
2021/04/13 03:37:48;;;;;;;2.58;1.10;;;4.80;76.20;;;;;;5011736;28;20026;-72
2021/04/13 03:40:16;;;;;;;1.33;1.02;;;4.80;76.00;;;;;;5010828;28;20656;-73
2021/04/13 03:42:43;;;;;;;1.30;1.00;;;4.90;75.90;;;;;;5010698;28;20049;-71
2021/04/13 03:45:13;;;;;;;1.48;1.13;;;4.90;75.90;;;;;;5009252;28;20030;-73
2021/04/13 03:47:40;;;;;;;3.03;1.40;;;5.00;75.80;;;;;;5011641;28;20018;-72
2021/04/13 03:50:11;;;;;;;2.83;1.38;;;4.90;75.70;;;;;;5009555;28;20032;-72
2021/04/13 03:52:38;;;;;;;2.83;1.27;;;5.00;75.50;;;;;;5010254;28;20379;-72
2021/04/13 03:55:23;;;;;;;1.63;1.20;;;5.00;75.50;;;;;;5010754;28;20026;-73
2021/04/13 03:57:51;;;;;;;2.10;1.15;;;5.00;75.50;;;;;;5011390;28;20026;-72
2021/04/13 04:00:20;;;;;;;2.17;1.15;;;5.00;75.70;;;;;;5010689;28;20022;-72
2021/04/13 04:02:49;;;;;;;2.78;1.27;;;5.00;75.80;;;;;;5013264;28;20105;-71
2021/04/13 04:05:18;;;;;;;1.48;0.98;;;4.90;75.90;;;;;;5014185;28;20104;-71
2021/04/13 04:07:55;;;;;;;1.25;1.15;;;4.90;76.10;;;;;;5014748;28;20056;-71
2021/04/13 04:10:42;;;;;;;2.92;1.38;;;4.90;76.30;;;;;;5014143;28;20378;-76
2021/04/13 04:13:13;;;;;;;1.50;1.10;;;4.90;76.50;;;;;;5012762;28;20029;-70
2021/04/13 04:15:41;;;;;;;;;;;4.80;76.60;;;;;;5015006;28;20486;-71
2021/04/13 04:18:28;;;;;;;2.15;1.20;;;4.70;76.70;;;;;;5013740;28;19920;-73
2021/04/13 04:20:54;;;;;;;2.22;1.15;;;4.70;76.80;;;;;;5013065;28;20403;-73
2021/04/13 04:23:32;;;;;;;4.22;1.85;;;4.70;77.00;;;;;;5013753;28;20458;-71
2021/04/13 04:26:06;;;;;;;2.22;1.20;;;4.70;77.30;;;;;;5013568;28;20077;-73
2021/04/13 04:28:41;;;;;;;4.18;1.60;;;4.60;77.30;;;;;;5014283;28;20030;-72
2021/04/13 04:31:34;;;;;;;2.45;1.40;;;4.60;77.50;;;;;;5013986;28;20108;-73
2021/04/13 04:34:21;;;;;;;3.65;2.00;;;4.60;77.50;;;;;;5013795;28;20021;-74
2021/04/13 04:36:52;;;;;;;4.70;1.80;;;4.50;77.60;;;;;;5013661;28;20055;-71
2021/04/13 04:39:32;;;;;;;2.95;1.50;;;4.50;77.50;;;;;;5013003;28;20629;-72
2021/04/13 04:42:11;;;;;;;3.05;1.55;;;4.50;77.50;;;;;;5015407;28;20060;-72
2021/04/13 04:44:38;;;;;;;1.30;1.20;;;4.50;77.30;;;;;;5013938;28;20438;-72
2021/04/13 04:47:38;;;;;;;5.78;1.77;;;4.50;77.30;;;;;;5013167;28;20026;-74
2021/04/13 04:50:05;;;;;;;1.45;1.23;;;4.60;77.30;;;;;;5013397;28;20030;-74
2021/04/13 04:52:31;;;;;;;5.45;1.52;;;4.50;77.30;;;;;;5014005;28;20046;-72
2021/04/13 04:54:57;;;;;;;2.10;1.27;;;4.50;77.30;;;;;;5014168;28;20037;-72
2021/04/13 04:57:24;;;;;;;2.08;1.35;;;4.50;77.30;;;;;;5013576;28;20462;-73
2021/04/13 04:59:50;;;;;;;2.53;1.40;;;4.50;77.40;;;;;;5013536;28;20045;-73
2021/04/13 05:02:16;;;;;;;2.20;1.80;;;4.50;77.50;;;;;;5012934;28;20022;-72
2021/04/13 05:04:44;;;;;;;3.42;1.60;;;4.50;77.40;;;;;;5013757;28;20055;-72
2021/04/13 05:07:09;;;;;;;2.63;1.60;;;4.50;77.40;;;;;;5012895;28;20030;-73
2021/04/13 05:09:36;;;;;;;4.07;1.80;;;4.50;77.40;;;;;;5013504;28;20433;-73
2021/04/13 05:12:06;;;;;;;2.55;1.58;;;4.50;77.30;;;;;;5012944;28;20156;-73
2021/04/13 05:14:31;;;;;;;4.28;1.70;;;4.50;77.30;;;;;;5013218;28;20512;-73
2021/04/13 05:16:57;;;;;;;2.53;1.58;;;4.40;77.30;;;;;;4997936;28;20050;-72
2021/04/13 05:19:23;;;;;;;2.15;1.25;;;4.50;77.30;;;;;;4992851;28;20042;-73
2021/04/13 05:21:48;;;;;;;2.95;1.75;;;4.50;77.30;;;;;;4993751;28;20022;-73
2021/04/13 05:24:14;;;;;;;4.57;1.50;;;4.50;77.30;;;;;;4992749;28;20097;-73
2021/04/13 05:26:40;;;;;;;3.47;1.70;;;4.50;77.30;;;;;;4993362;28;20120;-73
2021/04/13 05:29:07;;;;;;;3.03;1.80;;;4.50;77.30;;;;;;4991783;28;20113;-73
2021/04/13 05:31:34;;;;;;;2.72;1.27;;;4.50;77.30;;;;;;4990146;28;20172;-82
2021/04/13 05:33:59;;;;;;;4.25;2.00;;;4.50;77.30;;;;;;4991764;28;20022;-80
2021/04/13 05:36:26;;;;;;;2.72;1.60;;;4.50;77.80;;;;;;4989797;28;20036;-79
2021/04/13 05:38:54;;;;;;;3.25;1.95;;;4.50;77.30;;;;;;4991250;28;20113;-79
2021/04/13 05:41:20;;;;;;;1.83;1.60;;;4.50;77.30;;;;;;4992894;28;20022;-77
2021/04/13 05:43:46;;;;;;;2.35;1.40;;;4.50;77.30;;;;;;4991303;28;20525;-82
2021/04/13 05:46:18;;;;;;;3.08;1.90;;;4.50;77.40;;;;;;4990408;28;20061;-78
2021/04/13 05:48:43;;;;;;;2.97;1.45;;;4.50;77.50;;;;;;4990935;28;20034;-81
2021/04/13 05:51:09;;;;;;;3.85;1.88;;;4.50;77.40;;;;;;4990516;28;20029;-74
2021/04/13 05:53:35;;;;;;;3.22;1.40;;;4.60;77.40;;;;;;4992949;28;20105;-72
2021/04/13 05:56:00;;;;;;;5.90;1.50;;;4.60;77.30;;;;;;4992965;28;20379;-72
2021/04/13 05:58:33;;;;;;;4.10;1.83;;;4.60;77.40;;;;;;4991754;28;20026;-71
2021/04/13 06:01:03;;;;;;;3.47;2.05;;;4.60;77.40;;;;;;4993085;28;20027;-72
2021/04/13 06:03:30;;;;;;;1.75;1.50;;;4.60;77.50;;;;;;4992245;28;20026;-72
2021/04/13 06:05:57;;;;;;;6.53;2.17;;;4.60;77.40;;;;;;4992537;28;20034;-72
2021/04/13 06:08:24;;;;;;;2.80;1.50;;;4.60;77.30;;;;;;4991939;28;20426;-73
2021/04/13 06:10:50;;;;;;;2.25;1.42;;;4.60;77.30;;;;;;4992934;28;20438;-72
2021/04/13 06:13:17;;;;;;;2.30;1.40;;;4.70;77.30;;;;;;4991899;28;20474;-73
2021/04/13 06:15:42;;;;;;;3.58;1.73;;;4.70;77.40;;;;;;4992826;28;20026;-71
2021/04/13 06:18:08;;;;;;;7.50;2.85;;;4.70;77.30;;;;;;4992017;28;20042;-71
2021/04/13 06:20:34;;;;;;;2.28;1.63;;;4.80;77.40;;;;;;4992080;28;20520;-72
2021/04/13 06:23:00;;;;;;;2.67;1.58;;;4.80;77.40;;;;;;4991090;28;20022;-71
2021/04/13 06:25:29;;;;;;;4.68;2.35;;;4.80;77.40;;;;;;4991297;28;20111;-72
2021/04/13 06:27:55;;;;;;;1.73;1.45;;;4.90;77.40;;;;;;4991123;28;20113;-72
2021/04/13 06:30:23;;;;;;;3.72;1.92;;;4.90;77.60;;;;;;4991949;28;20026;-72
2021/04/13 06:32:50;;;;;;;3.38;1.70;;;4.90;77.60;;;;;;4992311;28;20054;-72
2021/04/13 06:35:17;;;;;;;3.25;1.60;;;4.90;77.60;;;;;;4991353;28;20473;-72
2021/04/13 06:37:44;;;;;;;3.80;1.55;;;5.00;77.50;;;;;;4992276;28;20446;-72
2021/04/13 06:40:34;;;;;;;3.38;1.60;;;5.10;77.60;;;;;;4991637;28;20034;-72
2021/04/13 06:43:28;;;;;;;5.50;1.67;;;5.10;77.50;;;;;;4981095;28;20097;-72
2021/04/13 06:46:07;;;;;;;2.20;1.52;;;5.20;77.40;;;;;;4992198;28;20162;-72
2021/04/13 06:48:58;;;;;;;1.65;1.35;;;5.20;77.40;;;;;;4992173;28;20034;-72
2021/04/13 06:52:03;;;;;;;3.72;1.60;;;5.30;77.20;;;;;;4991468;28;20026;-72
2021/04/13 06:54:48;;;;;;;1.73;1.38;;;5.30;77.10;;;;;;4978540;28;20046;-73
2021/04/13 06:57:37;;;;;;;4.53;1.17;;;5.40;77.10;;;;;;4991626;28;20026;-73
2021/04/13 07:00:22;;;;;;;4.78;1.50;;;5.50;77.10;;;;;;4991801;28;20426;-73
2021/04/13 07:03:02;;;;;;;3.45;1.50;;;5.50;77.00;;;;;;4992251;28;20022;-72
2021/04/13 07:05:39;;;;;;;1.70;1.20;;;5.50;76.90;;;;;;4990032;28;20030;-71
2021/04/13 07:08:29;;;;;;;2.08;1.20;;;5.60;77.00;;;;;;4990943;28;20023;-72
2021/04/13 07:11:02;;;;;;;2.20;1.05;;;5.70;76.90;;;;;;4991900;28;20424;-73
2021/04/13 07:13:33;;;;;;;2.25;1.58;;;5.70;76.70;;;;;;4991312;28;20021;-73
2021/04/13 07:16:18;;;;;;;3.78;1.65;;;5.70;76.70;;;;;;4992047;28;20038;-72
2021/04/13 07:18:56;;;;;;;2.15;1.00;;;5.80;76.50;;;;;;4991857;28;20035;-72
2021/04/13 07:21:28;;;;;;;1.45;0.90;;;5.90;76.40;;;;;;4989999;28;20033;-72
2021/04/13 07:23:59;;;;;;;2.38;0.93;;;6.00;76.10;;;;;;4991966;28;20456;-72
2021/04/13 07:26:35;;;;;;;2.88;0.80;;;6.00;75.90;;;;;;4991027;28;20386;-72
2021/04/13 07:29:12;;;;;;;4.03;1.42;;;6.10;75.80;;;;;;4992084;28;20033;-72
2021/04/13 07:31:48;;;;;;;1.30;1.10;;;6.10;75.50;;;;;;4991893;28;20023;-72
2021/04/13 07:34:14;;;;;;;1.45;1.02;;;6.20;75.20;;;;;;4991285;28;20026;-73
2021/04/13 07:36:45;;;;;;;1.38;0.95;;;6.30;75.10;;;;;;4992074;28;20101;-71
2021/04/13 07:39:13;;;;;;;8.50;1.13;;;6.30;74.90;;;;;;4995317;28;20430;-72
2021/04/13 07:41:50;;;;;;;1.65;1.00;;;6.30;74.80;;;;;;4994965;28;20036;-72
2021/04/13 07:44:35;;;;;;;1.55;0.93;;;6.40;74.80;;;;;;4994888;28;20068;-73
2021/04/13 07:47:30;;;;;;;0.75;0.73;;;6.50;74.80;;;;;;4995550;28;20022;-72
2021/04/13 07:49:59;;;;;;;0.70;0.70;;;6.50;74.50;;;;;;4995486;28;20033;-73
2021/04/13 07:52:33;;;;;;;1.27;0.73;;;6.50;74.40;;;;;;4994592;28;20027;-72
2021/04/13 07:55:20;;;;;;;1.75;1.02;;;6.60;74.30;;;;;;4995205;28;20157;-71
2021/04/13 07:58:06;;;;;;;1.10;0.77;;;6.70;74.10;;;;;;4993831;28;20065;-72
2021/04/13 08:00:39;;;;;;;1.65;0.90;;;6.70;73.90;;;;;;4994293;28;20030;-72
2021/04/13 08:03:28;;;;;;;0.77;0.77;;;6.80;73.50;;;;;;4995315;28;20081;-72
2021/04/13 08:05:56;;;;;;;1.08;0.93;;;6.90;73.00;;;;;;4995241;28;20424;-72
2021/04/13 08:08:31;;;;;;;1.63;0.60;;;7.00;72.50;;;;;;4994426;28;20029;-72
2021/04/13 08:11:19;;;;;;;0.77;0.50;;;7.20;71.90;;;;;;4993801;28;20328;-73
2021/04/13 08:13:51;;;;;;;1.15;0.73;;;7.20;71.60;;;;;;4995014;28;20022;-73
2021/04/13 08:16:32;;;;;;;0.63;0.60;;;7.30;71.40;;;;;;4994332;28;20066;-72
2021/04/13 08:19:26;;;;;;;1.60;0.70;;;7.30;70.70;;;;;;4993494;28;20133;-72
2021/04/13 08:22:13;;;;;;;1.40;1.15;;;7.30;69.90;;;;;;4994811;28;20471;-72
2021/04/13 08:24:53;;;;;;;0.40;0.40;;;7.30;69.90;;;;;;4994188;28;20058;-72
2021/04/13 08:27:42;;;;;;;2.30;0.57;;;7.40;70.00;;;;;;4992789;28;20018;-71
2021/04/13 08:30:14;;;;;;;1.92;0.52;;;7.40;69.90;;;;;;4994464;28;20060;-73
2021/04/13 08:32:56;;;;;;;0.88;0.60;;;7.50;69.70;;;;;;4994084;28;20019;-73
2021/04/13 08:35:34;;;;;;;0.60;0.60;;;7.50;69.20;;;;;;4994017;28;20463;-72
2021/04/13 08:38:04;;;;;;;1.00;0.50;;;7.60;68.40;;;;;;4994403;28;20364;-72
2021/04/13 08:40:37;;;;;;;1.55;1.02;;;7.60;68.40;;;;;;4993965;28;20069;-73
2021/04/13 08:43:31;;;;;;;0.55;0.50;;;7.70;67.80;;;;;;4992850;28;20426;-74
2021/04/13 08:45:56;;;;;;;1.05;0.50;;;7.70;67.10;;;;;;4995132;28;20027;-72
2021/04/13 08:48:29;;;;;;;2.65;0.77;;;7.70;67.00;;;;;;4995765;28;20038;-72
2021/04/13 08:51:11;;;;;;;0.47;0.47;;;7.70;66.50;;;;;;4994012;28;20023;-72
2021/04/13 08:53:45;;;;;;;0.77;0.60;;;7.80;65.90;;;;;;4992210;28;20462;-73
2021/04/13 08:56:11;;;;;;;1.52;0.70;;;7.90;65.90;;;;;;4994582;28;20486;-72
2021/04/13 08:58:47;;;;;;;1.67;0.73;;;7.90;64.90;;;;;;4993251;28;20070;-72
2021/04/13 09:01:22;;;;;;;5.78;1.50;;;8.10;65.00;;;;;;4993765;28;20022;-73
2021/04/13 09:03:48;;;;;;;0.70;0.68;;;8.10;64.80;;;;;;4992687;28;20426;-72
2021/04/13 09:06:39;;;;;;;1.20;0.70;;;8.20;64.90;;;;;;4992572;28;20054;-73
2021/04/13 09:09:14;;;;;;;1.90;0.90;;;8.30;64.60;;;;;;4993648;28;20030;-73
2021/04/13 09:11:51;;;;;;;0.40;0.40;;;8.20;63.70;;;;;;4993179;28;20204;-73
2021/04/13 09:14:40;;;;;;;0.70;0.50;;;8.20;63.60;;;;;;4993775;28;20462;-73
2021/04/13 09:17:32;;;;;;;1.08;0.52;;;8.20;63.40;;;;;;4993737;28;20022;-72
2021/04/13 09:20:04;;;;;;;1.38;0.60;;;8.20;63.20;;;;;;4993697;28;20471;-72
2021/04/13 09:22:55;;;;;;;0.60;0.60;;;8.30;62.80;;;;;;4992845;28;20069;-73
2021/04/13 09:25:44;;;;;;;0.50;0.50;;;8.40;62.60;;;;;;4991974;28;20426;-73
2021/04/13 09:28:22;;;;;;;0.60;0.55;;;8.40;61.60;;;;;;4991538;28;20081;-73
2021/04/13 09:30:50;;;;;;;0.65;0.50;;;8.50;61.00;;;;;;4993847;28;20030;-73
2021/04/13 09:33:45;;;;;;;0.40;0.40;;;8.70;61.10;;;;;;4993544;28;20026;-71
2021/04/13 09:36:48;;;;;;;0.57;0.50;;;8.80;61.20;;;;;;4993498;28;20104;-72
2021/04/13 09:39:57;;;;;;;0.55;0.55;;;8.90;61.20;;;;;;4993598;28;20041;-73
2021/04/13 09:42:42;;;;;;;1.85;0.50;;;8.90;60.80;;;;;;4981194;28;20054;-73
2021/04/13 09:45:25;;;;;;;0.63;0.63;;;8.90;60.60;;;;;;4993158;28;20097;-73
2021/04/13 09:47:57;;;;;;;0.40;0.40;;;9.00;60.20;;;;;;4993301;28;20153;-73
2021/04/13 09:50:43;;;;;;;0.80;0.47;;;9.10;60.20;;;;;;4990919;28;20402;-73
2021/04/13 09:53:25;;;;;;;4.43;1.25;;;9.20;59.80;;;;;;4993174;28;20026;-73
2021/04/13 09:56:21;;;;;;;1.00;0.40;;;9.40;58.60;;;;;;4993234;28;20018;-72
2021/04/13 09:59:07;;;;;;;0.30;0.30;;;9.40;58.70;;;;;;4992125;28;20038;-73
2021/04/13 10:01:36;;;;;;;0.75;0.50;;;9.50;58.40;;;;;;4992454;28;20165;-73
2021/04/13 10:04:24;;;;;;;0.60;0.60;;;9.50;58.30;;;;;;4991276;28;20023;-72
2021/04/13 10:07:15;;;;;;;1.90;0.68;;;9.60;58.10;;;;;;4993048;28;20018;-73
2021/04/13 10:09:42;;;;;;;1.10;0.50;;;9.60;57.50;;;;;;4992407;28;20030;-72
2021/04/13 10:12:27;;;;;;;0.50;0.50;;;9.50;57.10;;;;;;4992798;28;20080;-72
2021/04/13 10:15:11;;;;;;;2.38;0.77;;;9.50;56.60;;;;;;4991409;28;20497;-72
2021/04/13 10:18:14;;;;;;;6.18;0.73;;;9.40;56.80;;;;;;4991697;28;20077;-72
2021/04/13 10:20:54;;;;;;;0.85;0.85;;;9.30;56.20;;;;;;4992099;28;20093;-72
2021/04/13 10:23:43;;;;;;;0.88;0.55;;;9.20;56.10;;;;;;4991370;28;20371;-72
2021/04/13 10:26:36;;;;;;;0.52;0.47;;;9.20;56.60;;;;;;4992498;28;20060;-72
2021/04/13 10:29:29;;;;;;;0.65;0.50;;;9.20;56.60;;;;;;4992933;28;20493;-72
2021/04/13 10:32:23;;;;;;;1.42;0.50;;;9.30;56.50;;;;;;4991322;28;20414;-73
2021/04/13 10:35:03;;;;;;;1.75;0.60;;;9.40;55.60;;;;;;4990793;28;20046;-72
2021/04/13 10:37:53;;;;;;;2.97;0.77;;;9.60;55.40;;;;;;4991807;28;20038;-73
2021/04/13 10:40:28;;;;;;;0.68;0.47;;;9.80;54.40;;;;;;4992509;28;20040;-72
2021/04/13 10:42:56;;;;;;;0.40;0.40;;;9.80;54.00;;;;;;4992301;28;20054;-72
2021/04/13 10:45:54;;;;;;;0.50;0.50;;;9.80;54.10;;;;;;4991078;28;20102;-74
2021/04/13 10:48:46;;;;;;;0.40;0.40;;;9.80;53.90;;;;;;4992502;28;20030;-72
2021/04/13 10:51:44;;;;;;;0.80;0.57;;;9.80;52.70;;;;;;4992667;28;20015;-73
2021/04/13 10:54:43;;;;;;;0.43;0.40;;;9.90;52.20;;;;;;4992411;28;20529;-72
2021/04/13 10:57:42;;;;;;;0.40;0.40;;;10.10;51.70;;;;;;4967178;28;20089;-72
2021/04/13 11:00:25;;;;;;;0.52;0.50;;;10.20;51.70;;;;;;4991896;28;20037;-73
2021/04/13 11:02:56;;;;;;;0.73;0.40;;;10.30;51.10;;;;;;4990236;28;20529;-72
2021/04/13 11:05:48;;;;;;;0.93;0.57;;;10.30;51.00;;;;;;4992256;28;20027;-73
2021/04/13 11:08:32;;;;;;;;;;;10.30;50.10;;;;;;4992010;28;20078;-72
2021/04/13 11:11:37;;;;;;;1.33;0.40;;;10.30;50.10;;;;;;4993193;28;19906;-72
2021/04/13 11:14:24;;;;;;;0.98;0.52;;;10.60;50.30;;;;;;4995882;28;20019;-72
2021/04/13 11:16:59;;;;;;;1.55;0.60;;;10.80;50.30;;;;;;4995699;28;20046;-73
2021/04/13 11:20:03;;;;;;;0.50;0.47;;;10.90;49.20;;;;;;4995867;28;20026;-73
2021/04/13 11:22:37;;;;;;;0.70;0.43;;;10.90;49.40;;;;;;4994275;28;20029;-72
2021/04/13 11:25:06;;;;;;;1.77;1.65;;;10.90;49.00;;;;;;4995712;28;20482;-72
2021/04/13 11:27:52;;;;;;;0.65;0.40;;;11.00;49.00;;;;;;4993694;28;20026;-72
2021/04/13 11:30:54;;;;;;;0.43;0.43;;;11.30;48.00;;;;;;4994293;28;20034;-73
2021/04/13 11:33:35;;;;;;;0.90;0.40;;;11.40;48.00;;;;;;4995342;28;20026;-72
2021/04/13 11:36:38;;;;;;;0.98;0.60;;;11.40;47.80;;;;;;4996023;28;20352;-73
2021/04/13 11:39:23;;;;;;;0.68;0.50;;;11.40;47.80;;;;;;4995460;28;20592;-72
2021/04/13 11:42:08;;;;;;;0.43;0.43;;;11.20;48.10;;;;;;4994935;28;20474;-72
2021/04/13 11:45:12;;;;;;;1.40;0.90;;;11.30;48.20;;;;;;4995402;28;20080;-73
2021/04/13 11:48:11;;;;;;;0.30;0.30;;;11.60;48.00;;;;;;4994914;28;20025;-72
2021/04/13 11:50:47;;;;;;;0.50;0.43;;;11.90;48.00;;;;;;4994874;28;20026;-72
2021/04/13 11:53:33;;;;;;;0.43;0.35;;;12.10;48.00;;;;;;4994296;28;20022;-73
2021/04/13 11:56:00;;;;;;;1.55;0.57;;;12.20;47.80;;;;;;4994984;28;20391;-73
2021/04/13 11:58:33;;;;;;;0.50;0.50;;;12.20;47.90;;;;;;4995155;28;20038;-73
2021/04/13 12:01:14;;;;;;;0.98;0.43;;;12.30;47.80;;;;;;4995335;28;20026;-72
2021/04/13 12:04:00;;;;;;;1.83;0.47;;;12.40;47.60;;;;;;4994796;28;20026;-73
2021/04/13 12:07:10;;;;;;;1.13;0.55;;;12.20;47.10;;;;;;4994841;28;20037;-72
2021/04/13 12:09:45;;;;;;;0.43;0.40;;;12.10;46.10;;;;;;4990056;28;20442;-73
2021/04/13 12:12:29;;;;;;;0.40;0.40;;;12.10;46.60;;;;;;4995246;28;20030;-72
2021/04/13 12:14:55;;;;;;;0.50;0.38;;;12.40;45.60;;;;;;4994559;28;20033;-72
2021/04/13 12:17:36;;;;;;;0.40;0.40;;;12.50;44.70;;;;;;4993580;28;20026;-73
2021/04/13 12:20:23;;;;;;;0.77;0.40;;;12.80;43.00;;;;;;4994853;28;20030;-71
2021/04/13 12:23:13;;;;;;;0.55;0.45;;;12.70;42.80;;;;;;4993447;28;20022;-72
2021/04/13 12:25:39;;;;;;;0.30;0.30;;;12.60;42.40;;;;;;4965480;28;20177;-73
2021/04/13 12:28:18;;;;;;;0.82;0.40;;;12.40;43.10;;;;;;4994837;28;20058;-72
2021/04/13 12:30:44;;;;;;;0.85;0.40;;;12.20;43.70;;;;;;4994522;28;20026;-71
2021/04/13 12:33:31;;;;;;;0.75;0.60;;;12.10;44.20;;;;;;4993754;28;20041;-73
2021/04/13 12:35:58;;;;;;;0.30;0.30;;;12.00;44.20;;;;;;4993728;28;20026;-72
2021/04/13 12:38:42;;;;;;;0.55;0.40;;;11.90;44.50;;;;;;4994499;28;20117;-72
2021/04/13 12:41:17;;;;;;;1.10;0.68;;;11.80;44.50;;;;;;4994558;28;20026;-73
2021/04/13 12:43:59;;;;;;;0.40;0.40;;;11.70;44.50;;;;;;4994017;28;20495;-72
2021/04/13 12:46:31;;;;;;;4.97;0.60;;;11.60;44.30;;;;;;4994532;28;20030;-73
2021/04/13 12:49:13;;;;;;;1.10;0.40;;;11.80;44.60;;;;;;4993928;28;20026;-72
2021/04/13 12:51:50;;;;;;;0.95;0.82;;;11.80;44.10;;;;;;4992491;28;20026;-72
2021/04/13 12:54:37;;;;;;;0.40;0.40;;;12.00;44.00;;;;;;4994379;28;20466;-73
2021/04/13 12:57:12;;;;;;;1.48;0.65;;;12.00;44.30;;;;;;4994169;28;20029;-73
2021/04/13 12:59:39;;;;;;;1.27;0.77;;;12.00;44.70;;;;;;4993007;28;20026;-72
2021/04/13 13:02:07;;;;;;;0.57;0.40;;;11.90;44.70;;;;;;4993937;28;20113;-72
2021/04/13 13:04:38;;;;;;;1.85;0.50;;;11.70;44.80;;;;;;4994122;28;20018;-72
2021/04/13 13:07:07;;;;;;;0.22;0.22;;;11.70;45.00;;;;;;4993796;28;20399;-72
2021/04/13 13:09:40;;;;;;;2.00;0.60;;;11.60;44.60;;;;;;4993957;28;20030;-72
2021/04/13 13:12:14;;;;;;;0.63;0.40;;;11.60;44.60;;;;;;4992831;28;20073;-72
2021/04/13 13:14:43;;;;;;;0.50;0.50;;;11.60;44.50;;;;;;4993505;28;20026;-73
2021/04/13 13:17:15;;;;;;;0.30;0.30;;;11.70;44.20;;;;;;5008666;28;20045;-74
2021/04/13 13:19:49;;;;;;;0.40;0.40;;;11.80;44.30;;;;;;4991599;28;20403;-73
2021/04/13 13:22:34;;;;;;;0.30;0.30;;;11.90;44.00;;;;;;4994032;28;20161;-72
2021/04/13 13:25:33;;;;;;;0.30;0.30;;;11.90;43.60;;;;;;4993347;28;20069;-72
2021/04/13 13:28:07;;;;;;;0.65;0.65;;;11.90;43.20;;;;;;4960321;28;20057;-73
2021/04/13 13:30:33;;;;;;;0.20;0.20;;;11.80;43.60;;;;;;4993776;28;20026;-73
2021/04/13 13:32:59;;;;;;;0.60;0.60;;;11.70;43.70;;;;;;4993138;28;20093;-73
2021/04/13 13:35:27;;;;;;;1.02;0.43;;;11.70;43.80;;;;;;4992265;28;20489;-74
2021/04/13 13:37:56;;;;;;;0.20;0.20;;;11.70;44.20;;;;;;4993552;28;20438;-73
2021/04/13 13:40:28;;;;;;;2.22;0.50;;;11.70;44.00;;;;;;4992374;28;20030;-74
2021/04/13 13:42:56;;;;;;;0.75;0.40;;;11.70;43.80;;;;;;4992941;28;20053;-73
2021/04/13 13:45:29;;;;;;;1.05;0.45;;;11.70;43.90;;;;;;4993745;28;20391;-72
2021/04/13 13:47:56;;;;;;;1.17;0.40;;;11.70;43.70;;;;;;4992282;28;20031;-72
2021/04/13 13:50:34;;;;;;;0.55;0.40;;;11.70;43.50;;;;;;4993184;28;20034;-72
2021/04/13 13:53:01;;;;;;;4.47;0.65;;;11.80;43.30;;;;;;4992180;28;20100;-73